createdAt,value
2018-12-06T00:02:21.699Z,-0.30
2018-12-06T00:04:50.777Z,-0.40
2018-12-06T00:07:19.870Z,-0.50
2018-12-06T00:09:48.925Z,-0.50
2018-12-06T00:12:18.019Z,-0.60
2018-12-06T00:14:47.142Z,-0.50
2018-12-06T00:17:16.139Z,-0.60
2018-12-06T00:19:45.222Z,-0.80
2018-12-06T00:22:14.334Z,-0.80
2018-12-06T00:24:43.394Z,-0.80
2018-12-06T00:27:12.589Z,-0.80
2018-12-06T00:29:44.078Z,-0.80
2018-12-06T00:32:13.101Z,-0.80
2018-12-06T00:34:42.136Z,-0.90
2018-12-06T00:37:11.262Z,-0.90
2018-12-06T00:39:40.337Z,-1.00
2018-12-06T00:42:09.403Z,-1.00
2018-12-06T00:44:38.516Z,-1.00
2018-12-06T00:47:07.599Z,-0.90
2018-12-06T00:49:36.671Z,-1.00
2018-12-06T00:52:05.782Z,-1.00
2018-12-06T00:54:34.855Z,-0.80
2018-12-06T00:57:03.926Z,-1.00
2018-12-06T00:59:33.068Z,-1.20
2018-12-06T01:02:02.128Z,-1.20
2018-12-06T01:04:31.183Z,-1.10
2018-12-06T01:07:00.270Z,-1.10
2018-12-06T01:09:29.445Z,-1.10
2018-12-06T01:11:58.539Z,-0.90
2018-12-06T01:14:31.799Z,-1.00
2018-12-06T01:17:00.884Z,-1.00
2018-12-06T01:19:29.927Z,-0.90
2018-12-06T01:21:59.050Z,-0.80
2018-12-06T01:24:28.091Z,-0.80
2018-12-06T01:26:57.163Z,-0.70
2018-12-06T01:29:26.494Z,-0.60
2018-12-06T01:31:55.582Z,-0.50
2018-12-06T01:34:24.741Z,-0.40
2018-12-06T01:36:53.839Z,-0.40
2018-12-06T01:39:22.936Z,-0.40
2018-12-06T01:41:51.964Z,-0.30
2018-12-06T01:44:21.144Z,-0.30
2018-12-06T01:46:50.250Z,-0.30
2018-12-06T01:49:19.324Z,-0.30
2018-12-06T01:51:48.460Z,-0.20
2018-12-06T01:54:17.558Z,-0.20
2018-12-06T01:56:46.611Z,-0.10
2018-12-06T01:59:15.714Z,-0.10
2018-12-06T02:01:44.837Z,-0.10
2018-12-06T02:04:13.898Z,-0.10
2018-12-06T02:06:42.997Z,0.00
2018-12-06T02:09:12.086Z,0.00
2018-12-06T02:11:41.146Z,0.00
2018-12-06T02:14:10.320Z,0.10
2018-12-06T02:16:39.398Z,0.20
2018-12-06T02:19:08.476Z,0.20
2018-12-06T02:21:37.595Z,0.20
2018-12-06T02:24:06.633Z,0.20
2018-12-06T02:26:35.720Z,0.20
2018-12-06T02:29:05.305Z,0.20
2018-12-06T02:31:34.365Z,0.10
2018-12-06T02:34:03.472Z,0.10
2018-12-06T02:36:32.580Z,0.20
2018-12-06T02:39:01.644Z,0.30
2018-12-06T02:41:30.658Z,0.30
2018-12-06T02:43:59.794Z,0.30
2018-12-06T02:46:28.888Z,0.30
2018-12-06T02:48:57.943Z,0.40
2018-12-06T02:51:27.383Z,0.40
2018-12-06T02:53:56.443Z,0.70
2018-12-06T02:56:25.530Z,1.00
2018-12-06T02:58:54.645Z,0.90
2018-12-06T03:01:23.716Z,0.80
2018-12-06T03:03:52.766Z,0.80
2018-12-06T03:06:21.825Z,0.70
2018-12-06T03:08:50.845Z,0.70
2018-12-06T03:11:19.892Z,0.70
2018-12-06T03:13:48.955Z,0.70
2018-12-06T03:16:17.983Z,0.90
2018-12-06T03:18:47.010Z,0.90
2018-12-06T03:21:16.125Z,0.90
2018-12-06T03:23:45.176Z,0.80
2018-12-06T03:26:14.291Z,0.70
2018-12-06T03:28:43.925Z,0.70
2018-12-06T03:31:12.989Z,0.80
2018-12-06T03:33:42.069Z,0.70
2018-12-06T03:36:11.214Z,0.70
2018-12-06T03:38:40.247Z,0.70
2018-12-06T03:41:09.293Z,0.70
2018-12-06T03:43:38.348Z,0.70
2018-12-06T03:46:07.526Z,0.60
2018-12-06T03:48:36.542Z,0.60
2018-12-06T03:51:05.694Z,0.60
2018-12-06T03:53:34.775Z,0.70
2018-12-06T03:56:03.875Z,0.60
2018-12-06T03:58:32.967Z,0.60
2018-12-06T04:01:02.013Z,0.70
2018-12-06T04:03:31.142Z,0.80
2018-12-06T04:06:00.256Z,1.00
2018-12-06T04:08:29.280Z,1.00
2018-12-06T04:10:58.357Z,1.00
2018-12-06T04:13:27.557Z,1.10
2018-12-06T04:15:56.607Z,1.10
2018-12-06T04:18:25.689Z,1.10
2018-12-06T04:20:54.806Z,1.10
2018-12-06T04:23:23.908Z,1.00
2018-12-06T04:25:52.944Z,1.10
2018-12-06T04:28:22.004Z,1.20
2018-12-06T04:30:51.029Z,1.20
2018-12-06T04:33:20.101Z,1.20
2018-12-06T04:35:49.221Z,1.20
2018-12-06T04:38:18.476Z,1.10
2018-12-06T04:40:47.502Z,1.20
2018-12-06T04:43:16.621Z,1.30
2018-12-06T04:45:45.698Z,1.30
2018-12-06T04:48:21.708Z,1.20
2018-12-06T04:50:45.897Z,1.10
2018-12-06T04:53:14.959Z,1.00
2018-12-06T04:55:44.003Z,1.00
2018-12-06T04:58:13.537Z,0.90
2018-12-06T05:00:42.563Z,0.80
2018-12-06T05:03:11.630Z,0.90
2018-12-06T05:05:41.114Z,0.90
2018-12-06T05:08:10.161Z,1.00
2018-12-06T05:10:39.259Z,1.20
2018-12-06T05:13:08.364Z,1.30
2018-12-06T05:15:37.480Z,1.30
2018-12-06T05:18:06.547Z,1.20
2018-12-06T05:20:35.686Z,1.30
2018-12-06T05:23:04.797Z,1.30
2018-12-06T05:25:33.878Z,1.40
2018-12-06T05:28:02.977Z,1.30
2018-12-06T05:30:32.025Z,1.30
2018-12-06T05:33:01.062Z,1.40
2018-12-06T05:35:30.182Z,1.40
2018-12-06T05:37:59.216Z,1.40
2018-12-06T05:40:28.417Z,1.30
2018-12-06T05:42:57.535Z,1.30
2018-12-06T05:45:26.716Z,1.30
2018-12-06T05:47:55.778Z,1.30
2018-12-06T05:50:24.885Z,1.30
2018-12-06T05:52:53.958Z,1.20
2018-12-06T05:55:23.035Z,1.30
2018-12-06T05:57:52.120Z,1.40
2018-12-06T06:00:21.244Z,1.40
2018-12-06T06:02:50.314Z,1.50
2018-12-06T06:05:19.458Z,1.50
2018-12-06T06:07:48.503Z,1.50
2018-12-06T06:10:17.589Z,1.50
2018-12-06T06:12:47.044Z,1.50
2018-12-06T06:15:16.102Z,1.50
2018-12-06T06:17:45.308Z,1.40
2018-12-06T06:20:14.404Z,1.40
2018-12-06T06:22:43.433Z,1.50
2018-12-06T06:25:12.589Z,1.60
2018-12-06T06:27:41.735Z,1.60
2018-12-06T06:30:10.793Z,1.50
2018-12-06T06:32:39.866Z,1.50
2018-12-06T06:35:09.092Z,1.40
2018-12-06T06:37:38.132Z,1.30
2018-12-06T06:40:07.559Z,1.10
2018-12-06T06:42:36.678Z,1.10
2018-12-06T06:45:05.994Z,1.00
2018-12-06T06:47:35.063Z,0.90
2018-12-06T06:50:04.289Z,1.00
2018-12-06T06:52:33.382Z,1.10
2018-12-06T06:55:02.411Z,1.10
2018-12-06T06:57:31.497Z,1.20
2018-12-06T07:00:00.559Z,1.20
2018-12-06T07:02:29.623Z,1.20
2018-12-06T07:04:58.748Z,1.30
2018-12-06T07:07:27.862Z,1.30
2018-12-06T07:09:56.921Z,1.30
2018-12-06T07:12:26.126Z,1.30
2018-12-06T07:14:55.167Z,1.20
2018-12-06T07:17:24.344Z,1.20
2018-12-06T07:19:53.438Z,1.20
2018-12-06T07:22:22.496Z,1.10
2018-12-06T07:24:51.576Z,1.10
2018-12-06T07:27:21.139Z,1.10
2018-12-06T07:29:50.239Z,1.10
2018-12-06T07:32:19.261Z,1.10
2018-12-06T07:34:48.322Z,1.10
2018-12-06T07:37:17.385Z,1.10
2018-12-06T07:39:46.398Z,1.10
2018-12-06T07:42:15.505Z,1.20
2018-12-06T07:44:44.527Z,1.30
2018-12-06T07:47:13.571Z,1.30
2018-12-06T07:49:42.697Z,1.30
2018-12-06T07:52:11.787Z,1.20
2018-12-06T07:54:40.831Z,1.20
2018-12-06T07:57:09.964Z,1.30
2018-12-06T07:59:39.003Z,1.30
2018-12-06T08:02:08.049Z,1.20
2018-12-06T08:04:37.140Z,1.20
2018-12-06T08:07:06.177Z,1.10
2018-12-06T08:09:35.240Z,1.10
2018-12-06T08:12:07.216Z,1.10
2018-12-06T08:14:36.316Z,1.20
2018-12-06T08:17:05.428Z,1.20
2018-12-06T08:19:34.476Z,1.20
2018-12-06T08:22:03.577Z,1.20
2018-12-06T08:24:32.700Z,1.40
2018-12-06T08:27:01.750Z,1.40
2018-12-06T08:29:30.837Z,1.30
2018-12-06T08:31:59.961Z,1.30
2018-12-06T08:34:29.550Z,1.30
2018-12-06T08:36:58.637Z,1.40
2018-12-06T08:39:27.867Z,1.30
2018-12-06T08:41:56.913Z,1.30
2018-12-06T08:44:26.130Z,1.40
2018-12-06T08:46:55.242Z,1.60
2018-12-06T08:49:24.361Z,1.60
2018-12-06T08:51:53.538Z,1.60
2018-12-06T08:54:22.602Z,1.60
2018-12-06T08:56:51.651Z,1.60
2018-12-06T08:59:20.734Z,1.70
2018-12-06T09:01:49.819Z,1.70
2018-12-06T09:04:18.809Z,1.80
2018-12-06T09:06:47.874Z,1.80
2018-12-06T09:09:17.000Z,1.90
2018-12-06T09:11:46.067Z,2.00
2018-12-06T09:14:15.188Z,2.00
2018-12-06T09:16:44.854Z,2.00
2018-12-06T09:19:14.761Z,2.10
2018-12-06T09:21:44.175Z,2.20
2018-12-06T09:24:13.229Z,2.20
2018-12-06T09:26:42.297Z,2.10
2018-12-06T09:29:11.383Z,2.20
2018-12-06T09:31:40.404Z,2.40
2018-12-06T09:34:09.468Z,2.40
2018-12-06T09:36:39.305Z,2.40
2018-12-06T09:39:09.804Z,2.50
2018-12-06T09:41:38.860Z,2.50
2018-12-06T09:44:07.961Z,2.50
2018-12-06T09:46:37.039Z,2.40
2018-12-06T09:49:06.203Z,2.40
2018-12-06T09:51:35.333Z,2.40
2018-12-06T09:54:04.419Z,2.50
2018-12-06T09:56:33.497Z,2.50
2018-12-06T09:59:02.657Z,2.50
2018-12-06T10:01:31.744Z,2.50
2018-12-06T10:04:00.795Z,2.50
2018-12-06T10:06:29.927Z,2.50
2018-12-06T10:08:59.007Z,2.50
2018-12-06T10:11:28.123Z,2.50
2018-12-06T10:13:57.280Z,2.50
2018-12-06T10:16:26.389Z,2.50
2018-12-06T10:18:56.008Z,2.60
2018-12-06T10:21:25.157Z,2.60
2018-12-06T10:23:54.199Z,2.70
2018-12-06T10:26:23.284Z,2.70
2018-12-06T10:28:52.371Z,2.80
2018-12-06T10:31:21.486Z,2.70
2018-12-06T10:33:50.564Z,2.70
2018-12-06T10:36:19.706Z,2.70
2018-12-06T10:38:48.819Z,2.70
2018-12-06T10:41:17.911Z,2.70
2018-12-06T10:43:47.069Z,2.70
2018-12-06T10:46:16.127Z,2.80
2018-12-06T10:48:45.197Z,2.70
2018-12-06T10:51:41.380Z,2.70
2018-12-06T10:54:10.492Z,2.70
2018-12-06T10:56:39.589Z,2.80
2018-12-06T10:59:08.687Z,2.90
2018-12-06T11:01:42.742Z,2.80
2018-12-06T11:04:11.877Z,2.70
2018-12-06T11:06:40.955Z,2.80
2018-12-06T11:09:10.024Z,2.80
2018-12-06T11:11:39.115Z,2.80
2018-12-06T11:14:08.224Z,2.70
2018-12-06T11:16:37.295Z,2.60
2018-12-06T11:19:06.419Z,2.70
2018-12-06T11:21:35.505Z,2.70
2018-12-06T11:24:04.579Z,2.70
2018-12-06T11:26:33.777Z,2.70
2018-12-06T11:29:02.850Z,2.70
2018-12-06T11:31:31.925Z,2.70
2018-12-06T11:34:01.056Z,2.70
2018-12-06T11:36:30.098Z,2.70
2018-12-06T11:38:59.151Z,2.50
2018-12-06T11:41:28.378Z,2.50
2018-12-06T11:43:57.429Z,2.50
2018-12-06T11:46:26.594Z,2.50
2018-12-06T11:48:55.730Z,2.40
2018-12-06T11:51:24.762Z,2.50
2018-12-06T11:53:53.806Z,2.40
2018-12-06T11:56:22.918Z,2.20
2018-12-06T11:58:51.960Z,2.30
2018-12-06T12:01:21.008Z,2.40
2018-12-06T12:03:50.141Z,2.30
2018-12-06T12:06:19.160Z,2.20
2018-12-06T12:08:48.225Z,2.20
2018-12-06T12:11:17.371Z,2.20
2018-12-06T12:13:46.467Z,2.30
2018-12-06T12:16:15.500Z,2.30
2018-12-06T12:18:44.600Z,2.30
2018-12-06T12:21:13.637Z,2.20
2018-12-06T12:23:42.700Z,2.20
2018-12-06T12:26:11.816Z,2.20
2018-12-06T12:28:40.891Z,2.20
2018-12-06T12:31:09.951Z,2.20
2018-12-06T12:33:39.005Z,2.10
2018-12-06T12:36:08.074Z,2.10
2018-12-06T12:38:37.124Z,2.10
2018-12-06T12:41:06.226Z,2.10
2018-12-06T12:43:35.284Z,2.00
2018-12-06T12:46:04.336Z,1.90
2018-12-06T12:48:33.417Z,1.90
2018-12-06T12:51:02.497Z,1.90
2018-12-06T12:53:31.578Z,2.00
2018-12-06T12:56:00.785Z,2.00
2018-12-06T12:58:29.836Z,2.00
2018-12-06T13:00:58.950Z,2.00
2018-12-06T13:03:28.080Z,1.90
2018-12-06T13:05:57.136Z,2.00
2018-12-06T13:08:26.539Z,1.90
2018-12-06T13:10:55.677Z,1.90
2018-12-06T13:13:24.764Z,1.90
2018-12-06T13:15:53.860Z,1.90
2018-12-06T13:18:23.382Z,2.00
2018-12-06T13:20:52.463Z,2.00
2018-12-06T13:23:21.525Z,2.00
2018-12-06T13:25:50.899Z,2.00
2018-12-06T13:28:19.995Z,1.90
2018-12-06T13:30:49.062Z,1.90
2018-12-06T13:33:18.189Z,1.90
2018-12-06T13:35:47.233Z,2.00
2018-12-06T13:38:16.251Z,2.00
2018-12-06T13:40:45.318Z,1.90
2018-12-06T13:43:14.360Z,1.90
2018-12-06T13:45:43.424Z,1.90
2018-12-06T13:48:12.565Z,1.90
2018-12-06T13:50:41.623Z,2.00
2018-12-06T13:53:10.712Z,1.90
2018-12-06T13:55:39.828Z,1.90
2018-12-06T13:58:09.067Z,1.90
2018-12-06T14:00:38.284Z,1.90
2018-12-06T14:03:07.733Z,1.90
2018-12-06T14:05:36.797Z,1.90
2018-12-06T14:08:05.878Z,1.90
2018-12-06T14:10:35.031Z,1.90
2018-12-06T14:13:04.103Z,1.80
2018-12-06T14:15:33.198Z,1.80
2018-12-06T14:18:02.611Z,1.80
2018-12-06T14:20:31.692Z,1.80
2018-12-06T14:23:00.780Z,1.80
2018-12-06T14:25:29.857Z,1.70
2018-12-06T14:27:58.980Z,1.60
2018-12-06T14:30:28.163Z,1.60
2018-12-06T14:32:57.320Z,1.60
2018-12-06T14:35:26.451Z,1.60
2018-12-06T14:37:55.555Z,1.60
2018-12-06T14:40:24.620Z,1.50
2018-12-06T14:42:53.930Z,1.50
2018-12-06T14:45:23.261Z,1.50
2018-12-06T14:47:52.377Z,1.40
2018-12-06T14:50:21.457Z,1.40
2018-12-06T14:52:50.519Z,1.40
2018-12-06T14:55:19.627Z,1.30
2018-12-06T14:57:48.753Z,1.30
2018-12-06T15:00:17.861Z,1.30
2018-12-06T15:02:46.964Z,1.30
2018-12-06T15:05:16.066Z,1.30
2018-12-06T15:07:45.117Z,1.30
2018-12-06T15:10:14.268Z,1.30
2018-12-06T15:12:43.311Z,1.40
2018-12-06T15:15:12.378Z,1.40
2018-12-06T15:17:41.492Z,1.40
2018-12-06T15:20:10.557Z,1.40
2018-12-06T15:22:39.646Z,1.50
2018-12-06T15:25:08.808Z,1.40
2018-12-06T15:27:38.149Z,1.50
2018-12-06T15:30:09.280Z,1.50
2018-12-06T15:32:38.408Z,1.50
2018-12-06T15:35:07.485Z,1.50
2018-12-06T15:37:36.554Z,1.40
2018-12-06T15:40:06.066Z,1.40
2018-12-06T15:42:35.100Z,1.50
2018-12-06T15:45:04.265Z,1.50
2018-12-06T15:47:33.313Z,1.50
2018-12-06T15:50:02.361Z,1.60
2018-12-06T15:52:31.510Z,1.60
2018-12-06T15:55:00.543Z,1.60
2018-12-06T15:57:29.545Z,1.50
2018-12-06T15:59:58.663Z,1.50
2018-12-06T16:02:27.876Z,1.50
2018-12-06T16:04:56.959Z,1.50
2018-12-06T16:07:26.087Z,1.60
2018-12-06T16:09:55.136Z,1.60
2018-12-06T16:12:24.186Z,1.60
2018-12-06T16:14:53.361Z,1.60
2018-12-06T16:17:22.373Z,1.70
2018-12-06T16:19:51.449Z,1.70
2018-12-06T16:22:20.525Z,1.60
2018-12-06T16:24:49.631Z,1.60
2018-12-06T16:27:18.700Z,1.70
2018-12-06T16:29:51.565Z,1.60
2018-12-06T16:32:19.002Z,1.60
2018-12-06T16:34:48.143Z,1.70
2018-12-06T16:37:17.262Z,1.60
2018-12-06T16:40:15.823Z,1.70
2018-12-06T16:42:44.883Z,1.70
2018-12-06T16:45:13.967Z,1.70
2018-12-06T16:47:43.151Z,1.60
2018-12-06T16:50:12.445Z,1.70
2018-12-06T16:52:41.572Z,1.70
2018-12-06T16:55:10.989Z,1.60
2018-12-06T16:57:40.058Z,1.60
2018-12-06T17:00:14.527Z,1.60
2018-12-06T17:02:43.994Z,1.60
2018-12-06T17:05:13.072Z,1.60
2018-12-06T17:07:42.129Z,1.60
2018-12-06T17:10:11.219Z,1.60
2018-12-06T17:12:40.335Z,1.60
2018-12-06T17:15:09.422Z,1.60
2018-12-06T17:17:38.504Z,1.60
2018-12-06T17:20:08.232Z,1.60
2018-12-06T17:22:37.518Z,1.60
2018-12-06T17:25:07.292Z,1.70
2018-12-06T17:27:36.394Z,1.60
2018-12-06T17:30:06.028Z,1.70
2018-12-06T17:32:35.148Z,1.60
2018-12-06T17:35:04.353Z,1.60
2018-12-06T17:37:33.438Z,1.60
2018-12-06T17:40:02.501Z,1.60
2018-12-06T17:42:31.612Z,1.60
2018-12-06T17:45:00.679Z,1.60
2018-12-06T17:47:29.828Z,1.60
2018-12-06T17:49:58.968Z,1.60
2018-12-06T17:52:28.084Z,1.60
2018-12-06T17:54:57.149Z,1.80
2018-12-06T17:57:26.401Z,1.70
2018-12-06T17:59:55.459Z,1.60
2018-12-06T18:02:24.518Z,1.50
2018-12-06T18:04:53.767Z,1.50
2018-12-06T18:07:22.806Z,1.60
2018-12-06T18:09:51.890Z,1.60
2018-12-06T18:12:21.227Z,1.50
2018-12-06T18:14:50.301Z,1.50
2018-12-06T18:17:19.390Z,1.40
2018-12-06T18:19:48.540Z,1.40
2018-12-06T18:22:17.635Z,1.40
2018-12-06T18:24:46.684Z,1.50
2018-12-06T18:27:16.076Z,1.40
2018-12-06T18:29:45.165Z,1.30
2018-12-06T18:32:14.228Z,1.30
2018-12-06T18:34:43.339Z,1.20
2018-12-06T18:37:12.473Z,1.10
2018-12-06T18:39:41.557Z,1.10
2018-12-06T18:42:10.711Z,1.10
2018-12-06T18:44:39.845Z,1.00
2018-12-06T18:47:08.883Z,1.10
2018-12-06T18:49:38.041Z,1.00
2018-12-06T18:52:07.160Z,1.00
2018-12-06T18:54:36.205Z,1.00
2018-12-06T18:57:05.356Z,1.00
2018-12-06T18:59:34.407Z,0.90
2018-12-06T19:02:03.419Z,0.90
2018-12-06T19:04:32.573Z,0.90
2018-12-06T19:07:01.714Z,0.90
2018-12-06T19:09:30.810Z,0.90
2018-12-06T19:11:59.928Z,1.00
2018-12-06T19:14:29.064Z,1.00
2018-12-06T19:16:58.188Z,0.90
2018-12-06T19:19:27.512Z,0.90
2018-12-06T19:21:56.575Z,0.80
2018-12-06T19:24:25.664Z,0.90
2018-12-06T19:26:54.727Z,0.90
2018-12-06T19:29:23.815Z,0.80
2018-12-06T19:31:52.919Z,0.80
2018-12-06T19:34:22.034Z,0.80
2018-12-06T19:36:51.073Z,0.80
2018-12-06T19:39:20.130Z,0.90
2018-12-06T19:41:49.592Z,0.80
2018-12-06T19:44:18.632Z,0.80
2018-12-06T19:46:47.711Z,0.70
2018-12-06T19:49:16.826Z,0.80
2018-12-06T19:51:45.907Z,0.70
2018-12-06T19:54:14.976Z,0.80
2018-12-06T19:56:44.121Z,0.80
2018-12-06T19:59:13.238Z,0.80
2018-12-06T20:01:42.316Z,0.80
2018-12-06T20:04:11.430Z,0.80
2018-12-06T20:06:40.661Z,0.80
2018-12-06T20:09:10.692Z,0.90
2018-12-06T20:11:39.821Z,0.90
2018-12-06T20:14:08.912Z,0.90
2018-12-06T20:16:37.951Z,0.90
2018-12-06T20:19:07.003Z,0.90
2018-12-06T20:21:36.108Z,0.90
2018-12-06T20:24:05.160Z,0.80
2018-12-06T20:26:34.305Z,0.80
2018-12-06T20:29:03.388Z,0.80
2018-12-06T20:31:32.473Z,0.80
2018-12-06T20:34:01.622Z,0.80
2018-12-06T20:36:30.674Z,0.80
2018-12-06T20:38:59.801Z,0.80
2018-12-06T20:41:28.904Z,0.80
2018-12-06T20:43:58.019Z,0.90
2018-12-06T20:46:27.140Z,0.90
2018-12-06T20:48:56.329Z,0.90
2018-12-06T20:51:25.426Z,0.90
2018-12-06T20:53:54.492Z,0.80
2018-12-06T20:56:23.621Z,0.90
2018-12-06T20:58:52.724Z,0.90
2018-12-06T21:01:21.858Z,1.00
2018-12-06T21:03:50.952Z,1.00
2018-12-06T21:06:20.048Z,0.90
2018-12-06T21:08:49.149Z,0.90
2018-12-06T21:11:18.246Z,0.90
2018-12-06T21:13:47.395Z,0.90
2018-12-06T21:16:16.459Z,0.90
2018-12-06T21:18:45.568Z,0.90
2018-12-06T21:21:14.649Z,0.90
2018-12-06T21:23:43.658Z,0.80
2018-12-06T21:26:12.821Z,0.80
2018-12-06T21:28:41.888Z,0.80
2018-12-06T21:31:10.992Z,0.80
2018-12-06T21:33:40.249Z,0.80
2018-12-06T21:36:09.261Z,0.70
2018-12-06T21:38:38.347Z,0.80
2018-12-06T21:41:07.482Z,0.80
2018-12-06T21:43:36.600Z,0.80
2018-12-06T21:46:05.682Z,0.70
2018-12-06T21:48:34.964Z,0.80
2018-12-06T21:51:04.024Z,0.80
2018-12-06T21:53:33.156Z,0.80
2018-12-06T21:56:02.239Z,0.90
2018-12-06T21:58:31.279Z,0.80
2018-12-06T22:01:00.315Z,0.90
2018-12-06T22:03:29.506Z,0.90
2018-12-06T22:05:58.576Z,0.80
2018-12-06T22:08:27.856Z,0.70
2018-12-06T22:10:57.505Z,0.80
2018-12-06T22:13:26.705Z,0.70
2018-12-06T22:15:55.779Z,0.70
2018-12-06T22:18:24.898Z,0.80
2018-12-06T22:20:54.027Z,0.80
2018-12-06T22:23:23.116Z,0.80
2018-12-06T22:25:52.355Z,0.80
2018-12-06T22:28:21.451Z,0.70
2018-12-06T22:30:50.496Z,0.80
2018-12-06T22:33:19.609Z,0.80
2018-12-06T22:35:48.672Z,0.90
2018-12-06T22:38:17.734Z,0.80
2018-12-06T22:40:46.871Z,0.80
2018-12-06T22:43:15.920Z,0.90
2018-12-06T22:45:54.469Z,0.90
2018-12-06T22:48:23.644Z,0.90
2018-12-06T22:50:52.714Z,0.80
2018-12-06T22:53:21.845Z,0.80
2018-12-06T22:55:50.905Z,0.80
2018-12-06T22:58:19.993Z,0.80
2018-12-06T23:00:53.492Z,0.80
2018-12-06T23:03:23.336Z,0.80
2018-12-06T23:05:53.494Z,0.80
2018-12-06T23:08:22.597Z,0.80
2018-12-06T23:10:51.697Z,0.80
2018-12-06T23:13:20.805Z,0.90
2018-12-06T23:15:49.860Z,0.80
2018-12-06T23:18:18.954Z,0.80
2018-12-06T23:20:48.118Z,0.80
2018-12-06T23:23:17.181Z,0.80
2018-12-06T23:25:46.213Z,0.80
2018-12-06T23:28:15.350Z,0.80
2018-12-06T23:30:44.460Z,0.80
2018-12-06T23:33:13.548Z,0.80
2018-12-06T23:35:42.910Z,0.80
2018-12-06T23:38:11.972Z,0.80
2018-12-06T23:40:41.038Z,0.80
2018-12-06T23:43:10.201Z,0.80
2018-12-06T23:45:39.241Z,0.80
2018-12-06T23:48:11.285Z,0.80
2018-12-06T23:50:40.432Z,0.80
2018-12-06T23:53:09.537Z,0.80
2018-12-06T23:55:38.638Z,0.80
2018-12-06T23:58:07.790Z,0.80
